Time;durP1;ratioP1;P1;durP2;ratioP2;P2;SDS_P1;SDS_P2;PMS_P1;PMS_P2;Temp;Humidity;BMP_temperature;BMP_pressure;BME280_temperature;BME280_humidity;BME280_pressure;Samples;Min_cycle;Max_cycle;Signal;HPM_P1;HPM_P2
2021/06/16 00:05:05;;;;;;;17.32;15.05;;;;;;;17.49;100.00;98551.09;4006295;72;43683;-24
2021/06/16 00:10:14;;;;;;;16.77;14.98;;;;;;;17.47;100.00;98557.25;4101712;71;44671;-24
2021/06/16 00:15:23;;;;;;;19.35;15.75;;;;;;;17.39;100.00;98554.71;4089800;70;42924;-25
2021/06/16 00:20:30;;;;;;;19.45;15.38;;;;;;;17.31;100.00;98548.09;4088766;70;43729;-25
2021/06/16 00:25:36;;;;;;;19.73;15.28;;;;;;;17.25;100.00;98541.56;4083852;70;44056;-25
2021/06/16 00:30:42;;;;;;;18.55;15.45;;;;;;;17.22;100.00;98537.87;4080052;71;44026;-23
2021/06/16 00:35:48;;;;;;;18.32;14.95;;;;;;;17.18;100.00;98546.97;4081995;71;43683;-25
2021/06/16 00:40:54;;;;;;;17.90;15.68;;;;;;;17.18;100.00;98549.69;4001147;72;43153;-23
2021/06/16 00:46:00;;;;;;;16.40;14.73;;;;;;;17.12;100.00;98542.31;4075765;71;44099;-25
2021/06/16 00:51:07;;;;;;;15.95;14.25;;;;;;;17.06;100.00;98545.31;4063113;70;44523;-25
2021/06/16 00:56:13;;;;;;;17.98;14.60;;;;;;;17.06;100.00;98547.22;4083376;70;43993;-23
2021/06/16 01:01:21;;;;;;;19.57;15.85;;;;;;;17.03;100.00;98543.52;4087822;71;43449;-23
2021/06/16 01:06:32;;;;;;;15.28;13.75;;;;;;;16.92;100.00;98545.73;4003949;73;44442;-23
2021/06/16 01:11:43;;;;;;;17.02;15.23;;;;;;;16.93;100.00;98535.17;4087510;70;43327;-23
2021/06/16 01:16:52;;;;;;;19.52;15.58;;;;;;;16.92;100.00;98533.48;4075288;71;43651;-23
2021/06/16 01:22:03;;;;;;;18.23;15.25;;;;;;;16.93;100.00;98543.88;4078588;71;43718;-23
2021/06/16 01:27:09;;;;;;;16.05;14.20;;;;;;;16.91;100.00;98538.61;4081509;70;43490;-23
2021/06/16 01:32:17;;;;;;;16.55;13.90;;;;;;;16.90;100.00;98536.92;4064288;71;44045;-25
2021/06/16 01:37:23;;;;;;;20.70;15.43;;;;;;;16.85;100.00;98528.53;4067473;70;43713;-23
2021/06/16 01:42:31;;;;;;;18.00;15.25;;;;;;;16.82;100.00;98526.20;4084830;71;43485;-24
2021/06/16 01:47:38;;;;;;;15.65;14.05;;;;;;;16.76;100.00;98525.62;4101845;71;44101;-24
2021/06/16 01:52:46;;;;;;;19.23;15.20;;;;;;;16.75;100.00;98514.45;4087553;71;43685;-24
2021/06/16 01:57:55;;;;;;;20.90;16.62;;;;;;;16.74;100.00;98508.15;4087029;70;43698;-24
2021/06/16 02:08:17;;;;;;;1215.65;539.05;;;;;;;16.70;100.00;98504.67;4000229;72;27229;-21
2021/06/16 02:13:26;;;;;;;20.60;18.05;;;;;;;16.64;100.00;98507.66;3920649;73;43937;-23
2021/06/16 02:23:49;;;;;;;29.60;20.72;;;;;;;16.66;100.00;98502.88;3957508;73;27146;-22
2021/06/16 02:28:55;;;;;;;21.00;18.62;;;;;;;16.48;100.00;98491.13;3924223;74;43476;-24
2021/06/16 02:34:01;;;;;;;24.35;19.67;;;;;;;16.35;100.00;98486.95;3928488;74;43348;-23
2021/06/16 02:39:10;;;;;;;1999.90;999.90;;;;;;;16.36;100.00;98495.43;3923294;74;43777;-25
2021/06/16 02:44:17;;;;;;;23.55;18.85;;;;;;;16.36;100.00;98498.97;3924590;74;43711;-25
2021/06/16 02:49:27;;;;;;;20.48;18.27;;;;;;;16.36;100.00;98485.38;3927862;75;44472;-25
2021/06/16 02:54:36;;;;;;;20.40;18.35;;;;;;;16.39;100.00;98482.80;3918673;75;43681;-24
2021/06/16 02:59:42;;;;;;;22.42;19.57;;;;;;;16.39;100.00;98482.27;3932022;75;43680;-23
2021/06/16 03:04:50;;;;;;;26.23;18.80;;;;;;;16.39;100.00;98478.73;3919236;75;44033;-23
2021/06/16 03:09:59;;;;;;;23.18;18.85;;;;;;;16.39;100.00;98477.37;3905752;73;44139;-23
2021/06/16 03:15:09;;;;;;;20.60;17.37;;;;;;;16.36;100.00;98481.30;3904050;74;44090;-23
2021/06/16 03:20:19;;;;;;;15.18;12.75;;;;;;;16.30;100.00;98489.73;3922245;75;43980;-24
2021/06/16 03:25:27;;;;;;;17.50;15.60;;;;;;;16.21;100.00;98491.45;3933128;75;43701;-24
2021/06/16 03:30:34;;;;;;;15.13;13.48;;;;;;;16.20;100.00;98494.66;3923533;74;43291;-24
2021/06/16 03:35:41;;;;;;;20.10;16.40;;;;;;;16.16;100.00;98493.40;3901901;75;44660;-24
2021/06/16 03:40:49;;;;;;;18.73;16.50;;;;;;;16.12;100.00;98492.92;3929588;74;44094;-24
2021/06/16 03:45:58;;;;;;;19.87;17.02;;;;;;;16.18;100.00;98491.30;3930302;74;43507;-24
2021/06/16 03:51:06;;;;;;;19.90;15.53;;;;;;;16.18;100.00;98497.59;3936971;74;43605;-24
2021/06/16 03:56:13;;;;;;;18.45;15.98;;;;;;;16.19;100.00;98494.34;3951623;74;43024;-24
2021/06/16 04:01:20;;;;;;;20.35;16.17;;;;;;;16.23;100.00;98494.28;3948978;75;43059;-24
2021/06/16 04:06:28;;;;;;;20.10;16.07;;;;;;;16.24;100.00;98490.53;3943167;75;43350;-24
2021/06/16 04:11:34;;;;;;;18.32;15.30;;;;;;;16.29;100.00;98495.38;3924463;74;43382;-24
2021/06/16 04:16:43;;;;;;;19.27;17.20;;;;;;;16.42;100.00;98499.56;3937908;75;44130;-24
2021/06/16 04:21:50;;;;;;;18.77;16.42;;;;;;;16.57;100.00;98495.91;3920830;74;43088;-24
2021/06/16 04:26:56;;;;;;;18.27;15.30;;;;;;;16.66;100.00;98493.85;3888959;74;43400;-23
2021/06/16 04:32:02;;;;;;;18.27;16.25;;;;;;;16.73;100.00;98500.20;3899479;75;43712;-22
2021/06/16 04:37:10;;;;;;;19.48;17.40;;;;;;;16.84;100.00;98495.56;3912785;75;43323;-22
2021/06/16 04:42:16;;;;;;;21.20;16.80;;;;;;;17.04;100.00;98483.97;3899900;75;44078;-22
2021/06/16 04:47:22;;;;;;;18.30;16.35;;;;;;;17.22;100.00;98495.17;3902365;75;44427;-22
2021/06/16 04:52:29;;;;;;;19.62;17.02;;;;;;;17.32;100.00;98489.86;3882808;74;44099;-22
2021/06/16 05:02:49;;;;;;;19.02;15.53;;;;;;;17.25;100.00;98485.75;4016387;73;27240;-22
2021/06/16 05:07:54;;;;;;;17.70;14.28;;;;;;;17.18;100.00;98480.77;3967137;73;44131;-22
2021/06/16 05:13:00;;;;;;;20.62;15.98;;;;;;;17.29;100.00;98480.73;3969930;73;43429;-23
2021/06/16 05:18:08;;;;;;;20.05;16.30;;;;;;;17.51;100.00;98485.00;3958550;74;43412;-23
2021/06/16 05:23:14;;;;;;;21.02;16.27;;;;;;;17.57;100.00;98484.70;3971379;73;43713;-22
2021/06/16 05:28:20;;;;;;;17.75;14.45;;;;;;;17.48;100.00;98481.84;3970585;73;44509;-23
2021/06/16 05:33:27;;;;;;;21.77;17.05;;;;;;;17.58;100.00;98476.02;3963854;73;44031;-24
2021/06/16 05:38:36;;;;;;;19.98;16.37;;;;;;;17.70;100.00;98475.20;3964402;73;43329;-23
2021/06/16 05:43:42;;;;;;;17.65;15.75;;;;;;;17.81;100.00;98472.41;3961409;73;43189;-23
2021/06/16 05:48:48;;;;;;;17.65;15.50;;;;;;;17.70;100.00;98480.65;3961484;73;44184;-24
2021/06/16 05:53:54;;;;;;;21.02;16.73;;;;;;;17.75;100.00;98473.22;3959706;73;44011;-25
2021/06/16 05:59:00;;;;;;;18.40;16.27;;;;;;;17.77;100.00;98463.45;3960876;73;43137;-22
2021/06/16 06:04:07;;;;;;;19.77;15.68;;;;;;;17.78;100.00;98470.09;3953715;73;44058;-23
2021/06/16 06:09:13;;;;;;;19.75;15.80;;;;;;;17.99;100.00;98465.52;3964038;73;44752;-23
2021/06/16 06:14:20;;;;;;;21.45;18.20;;;;;;;18.24;100.00;98463.55;3777896;77;44099;-23
2021/06/16 06:19:26;;;;;;;22.87;18.77;;;;;;;18.54;100.00;98461.22;3950661;75;44419;-23
2021/06/16 06:24:32;;;;;;;20.17;17.75;;;;;;;18.78;100.00;98460.23;3938595;75;44119;-24
2021/06/16 06:29:39;;;;;;;23.18;18.27;;;;;;;19.00;100.00;98458.08;3945282;74;43694;-23
2021/06/16 06:34:45;;;;;;;20.88;16.82;;;;;;;19.19;100.00;98457.69;3941866;75;43405;-23
2021/06/16 06:39:51;;;;;;;20.92;17.85;;;;;;;19.36;100.00;98455.30;3940154;74;44061;-23
2021/06/16 06:44:57;;;;;;;20.90;16.73;;;;;;;19.52;100.00;98462.69;3942685;74;43118;-23
2021/06/16 06:50:03;;;;;;;488.55;46.92;;;;;;;19.70;100.00;98454.59;3939920;75;43367;-23
2021/06/16 06:55:13;;;;;;;1999.90;999.90;;;;;;;19.91;100.00;98450.39;3942237;74;43991;-23
2021/06/16 07:00:21;;;;;;;1999.90;999.90;;;;;;;20.13;100.00;98453.05;3942661;74;44000;-24
2021/06/16 07:05:27;;;;;;;1999.90;999.90;;;;;;;20.31;100.00;98444.61;3948386;74;43917;-24
2021/06/16 07:10:34;;;;;;;1999.90;999.90;;;;;;;20.51;100.00;98444.43;3936671;75;44832;-24
2021/06/16 07:15:40;;;;;;;1999.90;999.90;;;;;;;20.69;100.00;98427.70;3942259;74;44113;-23
2021/06/16 07:20:47;;;;;;;1999.90;999.90;;;;;;;20.87;100.00;98427.77;3955772;73;44056;-24
2021/06/16 07:25:53;;;;;;;1999.90;999.90;;;;;;;21.03;100.00;98425.45;3943296;74;43987;-24
2021/06/16 07:30:59;;;;;;;1999.90;999.90;;;;;;;21.23;100.00;98423.30;3943975;74;44252;-23
2021/06/16 07:36:06;;;;;;;1999.90;999.90;;;;;;;21.42;100.00;98427.39;3941908;74;44486;-24
2021/06/16 07:41:12;;;;;;;1999.90;999.90;;;;;;;21.58;100.00;98425.89;3950172;74;43978;-24
2021/06/16 07:46:18;;;;;;;1999.90;999.90;;;;;;;21.76;100.00;98429.14;3952456;74;44066;-24
2021/06/16 07:51:25;;;;;;;1999.90;999.90;;;;;;;21.94;100.00;98427.38;3948566;73;44138;-24
2021/06/16 07:56:31;;;;;;;1999.90;999.90;;;;;;;22.03;100.00;98433.37;3946192;74;43651;-24
2021/06/16 08:01:40;;;;;;;1999.90;999.90;;;;;;;22.19;100.00;98438.69;3933338;75;43321;-24
2021/06/16 08:06:45;;;;;;;1999.90;999.90;;;;;;;22.32;100.00;98439.84;3927174;75;44083;-24
2021/06/16 08:11:51;;;;;;;1999.90;999.90;;;;;;;22.50;100.00;98444.97;3920040;73;43492;-24
2021/06/16 08:16:57;;;;;;;1999.90;999.90;;;;;;;22.55;100.00;98439.06;3927874;75;44730;-24
2021/06/16 08:22:05;;;;;;;1999.90;999.90;;;;;;;22.77;100.00;98442.02;3927548;73;44082;-24
2021/06/16 08:27:11;;;;;;;1999.90;999.90;;;;;;;22.96;100.00;98440.51;3924704;73;44514;-24
2021/06/16 08:32:17;;;;;;;1999.90;999.90;;;;;;;23.13;100.00;98442.48;3914165;75;43378;-24
2021/06/16 08:37:23;;;;;;;1999.90;999.90;;;;;;;23.19;100.00;98440.16;3935546;75;43384;-24
2021/06/16 08:42:29;;;;;;;1999.90;999.90;;;;;;;23.24;100.00;98432.02;3918086;73;44418;-23
2021/06/16 08:47:35;;;;;;;1999.90;999.90;;;;;;;23.32;100.00;98434.41;3928508;75;43685;-23
2021/06/16 08:52:42;;;;;;;1999.90;999.90;;;;;;;23.47;100.00;98428.37;3922303;75;44451;-23
2021/06/16 08:57:50;;;;;;;1999.90;999.90;;;;;;;23.66;100.00;98426.26;3926235;73;44030;-23
2021/06/16 09:02:56;;;;;;;1999.90;999.90;;;;;;;23.86;98.60;98427.69;3927422;73;44050;-23
2021/06/16 09:13:26;;;;;;;1999.90;999.90;;;;;;;24.06;95.19;98407.13;4003333;73;27809;-21
2021/06/16 09:24:00;;;;;;;1999.90;999.90;;;;;;;24.24;88.84;98415.16;3961186;73;27203;-21
2021/06/16 09:29:07;;;;;;;1999.90;999.90;;;;;;;24.33;94.74;98414.20;3918023;74;43063;-22
2021/06/16 09:34:15;;;;;;;1999.90;999.90;;;;;;;24.36;93.93;98414.23;3927887;74;43731;-22
2021/06/16 09:39:25;;;;;;;1999.90;999.90;;;;;;;24.47;92.95;98414.67;3912671;74;43278;-22
2021/06/16 09:50:13;;;;;;;1999.90;999.90;;;;;;;24.69;87.83;98410.63;3979135;73;27237;-22
2021/06/16 09:55:28;;;;;;;1999.90;999.90;;;;;;;24.76;90.42;98413.17;3685578;79;43270;-24
2021/06/16 10:00:35;;;;;;;1999.90;999.90;;;;;;;24.89;89.78;98405.91;3687484;79;43655;-24
2021/06/16 10:06:03;;;;;;;1999.90;999.90;;;;;;;25.05;90.05;98402.80;3686978;79;43440;-24
2021/06/16 10:11:11;;;;;;;1999.90;999.90;;;;;;;25.22;88.48;98394.48;3681394;79;44059;-23
2021/06/16 10:16:17;;;;;;;1999.90;999.90;;;;;;;25.34;88.81;98393.51;3681774;80;43274;-23
2021/06/16 10:21:25;;;;;;;1999.90;999.90;;;;;;;25.56;86.80;98385.20;3679978;80;44075;-23
2021/06/16 10:31:50;;;;;;;1999.90;999.90;;;;;;;25.98;82.29;98381.73;4000418;73;27521;-21
2021/06/16 10:37:06;;;;;;;1999.90;999.90;;;;;;;25.96;81.69;98383.07;3943024;74;43694;-23
2021/06/16 10:42:13;;;;;;;1999.90;999.90;;;;;;;25.94;80.91;98377.83;3938920;73;43389;-23
2021/06/16 10:47:20;;;;;;;1999.90;999.90;;;;;;;26.09;81.05;98370.20;3929783;73;43428;-23
2021/06/16 10:52:29;;;;;;;1999.90;999.90;;;;;;;26.17;79.40;98373.62;3920876;75;44387;-23
2021/06/16 10:57:35;;;;;;;1999.90;999.90;;;;;;;26.50;78.75;98373.01;3925437;73;44096;-23
2021/06/16 11:03:11;;;;;;;1999.90;999.90;;;;;;;26.53;77.12;98374.68;3931242;75;44085;-23
2021/06/16 11:08:52;;;;;;;1999.90;999.90;;;;;;;26.86;75.68;98373.23;3928365;75;43338;-23
2021/06/16 11:13:59;;;;;;;1999.90;999.90;;;;;;;26.94;78.11;98371.85;3927116;73;43681;-24
2021/06/16 11:19:24;;;;;;;1999.90;999.90;;;;;;;27.00;77.38;98364.69;3936594;73;43318;-24
2021/06/16 11:25:06;;;;;;;1999.90;999.90;;;;;;;27.04;77.00;98360.86;3918529;75;43454;-24
2021/06/16 11:30:14;;;;;;;1999.90;999.90;;;;;;;27.39;74.28;98355.14;3931965;73;43113;-24
2021/06/16 11:35:38;;;;;;;1999.90;999.90;;;;;;;27.69;72.00;98351.59;3903818;75;44020;-24
2021/06/16 11:40:52;;;;;;;1999.90;999.90;;;;;;;27.71;73.75;98347.19;3935618;73;43457;-24
2021/06/16 11:46:00;;;;;;;1999.90;999.90;;;;;;;27.68;68.74;98341.66;3946481;75;43681;-24
2021/06/16 11:51:08;;;;;;;1999.90;999.90;;;;;;;27.81;69.80;98329.19;3927347;73;43766;-22
2021/06/16 11:56:14;;;;;;;1999.90;999.90;;;;;;;27.90;67.92;98331.39;3935319;73;43689;-23
2021/06/16 12:01:21;;;;;;;1999.90;999.90;;;;;;;27.47;66.37;98330.27;3935605;74;43276;-23
2021/06/16 12:06:27;;;;;;;1999.90;999.90;;;;;;;27.63;68.43;98322.84;3898006;75;43992;-23
2021/06/16 12:11:36;;;;;;;1999.90;999.90;;;;;;;27.89;64.43;98319.50;3917463;73;44495;-23
2021/06/16 12:16:43;;;;;;;1999.90;999.90;;;;;;;28.17;63.93;98313.11;3930336;75;43722;-23
2021/06/16 12:22:12;;;;;;;1999.90;999.90;;;;;;;28.29;62.46;98302.56;3916807;75;44082;-23
2021/06/16 12:27:20;;;;;;;1999.90;999.90;;;;;;;28.23;62.97;98299.55;3923978;73;45179;-23
2021/06/16 12:32:28;;;;;;;1999.90;999.90;;;;;;;28.60;60.13;98280.84;3925643;73;43766;-23
2021/06/16 12:37:36;;;;;;;1999.90;999.90;;;;;;;28.73;59.11;98290.55;3921053;75;43984;-23
2021/06/16 12:42:44;;;;;;;1999.90;999.90;;;;;;;28.63;55.51;98275.31;3917014;73;43692;-23
2021/06/16 12:47:53;;;;;;;1999.90;999.90;;;;;;;28.53;58.18;98278.37;3922982;75;44009;-23
2021/06/16 12:53:00;;;;;;;1999.90;999.90;;;;;;;28.94;55.92;98273.22;3928945;75;44085;-23
2021/06/16 12:58:06;;;;;;;1999.90;999.90;;;;;;;29.29;55.57;98270.52;3853341;75;43007;-22
2021/06/16 13:03:15;;;;;;;1999.90;999.90;;;;;;;29.63;52.68;98266.95;3926448;73;43675;-23
2021/06/16 13:08:38;;;;;;;1999.90;999.90;;;;;;;29.39;54.81;98271.86;3921121;75;44426;-23
2021/06/16 13:13:44;;;;;;;1999.90;999.90;;;;;;;29.27;54.84;98264.42;3925539;73;44024;-23
2021/06/16 13:18:51;;;;;;;1999.90;999.90;;;;;;;29.76;52.78;98262.66;3925630;75;44022;-23
2021/06/16 13:24:04;;;;;;;1999.90;999.90;;;;;;;29.79;53.63;98254.59;3926578;75;43698;-23
2021/06/16 13:29:11;;;;;;;1999.90;999.90;;;;;;;29.98;51.26;98255.27;3917131;74;43317;-23
2021/06/16 13:34:18;;;;;;;1999.90;999.90;;;;;;;30.46;49.00;98254.44;3902250;74;43300;-23
2021/06/16 13:39:26;;;;;;;1999.90;999.90;;;;;;;30.46;50.36;98256.41;3908226;74;43635;-23
2021/06/16 13:44:33;;;;;;;1999.90;999.90;;;;;;;30.12;52.49;98249.83;3906544;74;43282;-23
2021/06/16 13:49:39;;;;;;;1999.90;999.90;;;;;;;30.18;51.79;98238.09;3881314;75;44508;-22
2021/06/16 13:54:45;;;;;;;1999.90;999.90;;;;;;;30.09;50.33;98243.50;3894134;75;43657;-23
2021/06/16 13:59:53;;;;;;;1999.90;999.90;;;;;;;30.16;52.65;98237.59;3908965;74;44589;-23
2021/06/16 14:04:59;;;;;;;1999.90;999.90;;;;;;;29.78;52.88;98236.28;3912006;75;43681;-24
2021/06/16 14:10:08;;;;;;;1999.90;999.90;;;;;;;30.27;51.90;98231.61;3904435;74;43290;-23
2021/06/16 14:20:29;;;;;;;1999.90;999.90;;;;;;;30.31;49.66;98224.08;3996561;73;27197;-21
2021/06/16 14:25:37;;;;;;;1999.90;999.90;;;;;;;30.47;49.52;98225.52;3919058;74;44095;-22
2021/06/16 14:30:44;;;;;;;1999.90;999.90;;;;;;;31.23;46.80;98222.57;3918350;75;44410;-22
2021/06/16 14:35:52;;;;;;;1999.90;999.90;;;;;;;31.72;46.87;98222.61;3921011;73;44016;-22
2021/06/16 14:40:59;;;;;;;1999.90;999.90;;;;;;;32.19;45.11;98217.55;3918616;73;43682;-23
2021/06/16 14:46:05;;;;;;;1999.90;999.90;;;;;;;32.73;45.02;98222.84;3923945;73;43428;-23
2021/06/16 14:51:11;;;;;;;1999.90;999.90;;;;;;;32.80;44.07;98214.66;3918619;73;43674;-23
2021/06/16 14:56:18;;;;;;;1999.90;999.90;;;;;;;32.85;45.47;98215.92;3929277;73;43631;-22
2021/06/16 15:01:26;;;;;;;1999.90;999.90;;;;;;;32.14;45.76;98207.34;3915187;73;44041;-23
2021/06/16 15:06:32;;;;;;;1999.90;999.90;;;;;;;32.11;46.70;98202.37;3925265;75;43359;-23
2021/06/16 15:11:38;;;;;;;1999.90;999.90;;;;;;;33.38;44.58;98196.26;3906345;73;43157;-23
2021/06/16 15:16:44;;;;;;;1999.90;999.90;;;;;;;33.38;44.58;98196.26;3925039;75;43316;-23
2021/06/16 15:21:51;;;;;;;1999.90;999.90;;;;;;;33.34;43.93;98188.28;3919184;73;44018;-23
2021/06/16 15:26:57;;;;;;;1999.90;999.90;;;;;;;33.24;43.15;98181.50;3921862;73;43404;-23
2021/06/16 15:37:18;;;;;;;1999.90;999.90;;;;;;;32.78;43.28;98175.87;4014572;73;27870;-23
2021/06/16 15:42:26;;;;;;;1999.90;999.90;;;;;;;32.76;44.22;98165.59;3959746;73;44027;-23
2021/06/16 15:47:33;;;;;;;1999.90;999.90;;;;;;;32.77;43.59;98169.22;3961522;74;43414;-23
2021/06/16 15:52:39;;;;;;;1999.90;999.90;;;;;;;32.71;43.76;98153.98;3960377;73;43215;-23
2021/06/16 15:57:46;;;;;;;1999.90;999.90;;;;;;;32.85;44.38;98166.55;3958277;73;44486;-23
2021/06/16 16:02:55;;;;;;;1999.90;999.90;;;;;;;32.82;44.37;98159.34;3962511;73;44057;-23
2021/06/16 16:08:05;;;;;;;1999.90;999.90;;;;;;;32.89;44.34;98158.36;3960155;73;44130;-23
2021/06/16 16:13:18;;;;;;;1999.90;999.90;;;;;;;32.83;44.89;98161.00;3957672;73;43674;-23
2021/06/16 16:18:26;;;;;;;1999.90;999.90;;;;;;;33.53;44.37;98155.93;3960735;73;43448;-23
2021/06/16 16:23:33;;;;;;;1999.90;999.90;;;;;;;33.23;44.49;98158.36;3966453;73;44027;-23
2021/06/16 16:28:40;;;;;;;1999.90;999.90;;;;;;;33.27;44.47;98166.92;3957620;73;43349;-23
2021/06/16 16:33:46;;;;;;;1999.90;999.90;;;;;;;33.67;43.43;98160.05;3959542;73;44093;-23
2021/06/16 16:38:53;;;;;;;1999.90;999.90;;;;;;;33.00;44.13;98149.16;3931185;74;44065;-24
2021/06/16 16:43:59;;;;;;;1999.90;999.90;;;;;;;33.26;43.54;98155.50;3944598;73;44505;-24
2021/06/16 16:49:06;;;;;;;1999.90;999.90;;;;;;;32.89;44.12;98148.02;3781159;78;43373;-22
2021/06/16 16:54:13;;;;;;;1999.90;999.90;;;;;;;32.34;45.63;98142.56;3919396;75;43686;-22
2021/06/16 16:59:19;;;;;;;1999.90;999.90;;;;;;;32.11;46.21;98141.87;3929837;73;44521;-22
2021/06/16 17:04:25;;;;;;;1999.90;999.90;;;;;;;31.93;47.17;98142.24;3924352;73;44145;-23
2021/06/16 17:09:33;;;;;;;1999.90;999.90;;;;;;;31.92;47.41;98137.84;3929906;73;43659;-23
2021/06/16 17:14:39;;;;;;;1999.90;999.90;;;;;;;31.53;49.12;98139.66;3926343;73;43709;-23
2021/06/16 17:19:45;;;;;;;1999.90;999.90;;;;;;;31.53;49.12;98139.66;3928518;74;43229;-23
2021/06/16 17:24:52;;;;;;;1999.90;999.90;;;;;;;31.26;50.06;98135.13;3916087;75;42742;-23
2021/06/16 17:29:58;;;;;;;1999.90;999.90;;;;;;;31.09;50.68;98133.46;3942705;73;44071;-23
2021/06/16 17:35:06;;;;;;;1999.90;999.90;;;;;;;30.94;51.46;98139.53;3921487;75;43121;-23
2021/06/16 17:40:16;;;;;;;1999.90;999.90;;;;;;;30.77;52.16;98142.02;3923926;73;43729;-24
2021/06/16 17:45:26;;;;;;;1999.90;999.90;;;;;;;30.54;52.82;98136.23;3913459;73;44061;-24
2021/06/16 17:50:34;;;;;;;1999.90;999.90;;;;;;;30.33;54.00;98129.55;3930612;75;43197;-24
2021/06/16 17:55:40;;;;;;;1999.90;999.90;;;;;;;29.99;55.28;98136.11;3906657;73;44690;-24
2021/06/16 18:00:48;;;;;;;1999.90;999.90;;;;;;;29.80;56.18;98134.63;3927466;75;43608;-24
2021/06/16 18:05:54;;;;;;;1999.90;999.90;;;;;;;29.56;57.80;98132.66;3921345;74;43210;-24
2021/06/16 18:11:02;;;;;;;1999.90;999.90;;;;;;;29.31;58.61;98136.50;3921542;73;44177;-24
2021/06/16 18:16:10;;;;;;;1999.90;999.90;;;;;;;29.04;60.01;98136.45;3910814;73;43346;-24
2021/06/16 18:21:16;;;;;;;1999.90;999.90;;;;;;;28.81;60.81;98141.61;3913866;74;43144;-23
2021/06/16 18:26:23;;;;;;;1999.90;999.90;;;;;;;28.47;62.50;98135.44;3922504;73;43342;-23
2021/06/16 18:31:29;;;;;;;1999.90;999.90;;;;;;;28.14;64.63;98139.22;3928063;75;44483;-23
2021/06/16 18:36:36;;;;;;;1999.90;999.90;;;;;;;27.86;66.10;98141.49;3931384;75;44066;-24
2021/06/16 18:41:43;;;;;;;1999.90;999.90;;;;;;;27.30;70.38;98134.11;3933996;74;43427;-24
2021/06/16 18:52:02;;;;;;;1999.90;999.90;;;;;;;26.80;74.87;98142.14;3991238;72;27301;-20
2021/06/16 18:57:12;;;;;;;1999.90;999.90;;;;;;;26.41;75.20;98141.47;3917596;73;43371;-22
2021/06/16 19:02:21;;;;;;;1999.90;999.90;;;;;;;26.17;76.43;98143.08;3920763;75;44043;-23
2021/06/16 19:07:27;;;;;;;1999.90;999.90;;;;;;;25.87;78.23;98145.94;3930738;75;44259;-21
2021/06/16 19:12:33;;;;;;;1999.90;999.90;;;;;;;25.67;79.53;98137.28;3924899;73;44804;-23
2021/06/16 19:17:40;;;;;;;1999.90;999.90;;;;;;;25.47;81.15;98133.85;3914923;75;44114;-24
2021/06/16 19:22:46;;;;;;;1999.90;999.90;;;;;;;25.27;82.82;98137.83;3923334;73;43437;-24
2021/06/16 19:27:53;;;;;;;1999.90;999.90;;;;;;;25.02;84.36;98144.27;3921720;73;43703;-24
2021/06/16 19:33:00;;;;;;;1999.90;999.90;;;;;;;24.84;86.59;98144.64;3928410;73;43027;-24
2021/06/16 19:38:06;;;;;;;1999.90;999.90;;;;;;;24.67;87.58;98139.22;3914399;75;42955;-24
2021/06/16 19:43:12;;;;;;;1999.90;999.90;;;;;;;24.49;87.52;98148.14;3922850;73;43682;-23
2021/06/16 19:48:18;;;;;;;1999.90;999.90;;;;;;;24.38;89.69;98144.99;3924627;74;43059;-23
2021/06/16 19:53:24;;;;;;;1999.90;999.90;;;;;;;24.27;90.93;98154.52;3930234;74;44780;-23
2021/06/16 19:58:31;;;;;;;1999.90;999.90;;;;;;;24.19;90.38;98160.45;3922910;73;44494;-23
2021/06/16 20:03:39;;;;;;;1999.90;999.90;;;;;;;24.11;89.79;98165.05;3945113;73;44167;-23
2021/06/16 20:08:45;;;;;;;1999.90;999.90;;;;;;;24.10;89.10;98176.61;3956666;74;43705;-23
2021/06/16 20:13:55;;;;;;;1999.90;999.90;;;;;;;23.95;91.55;98175.84;3962594;73;44374;-23
2021/06/16 20:19:00;;;;;;;1999.90;999.90;;;;;;;23.86;91.04;98171.84;3953831;74;44046;-23
2021/06/16 20:24:09;;;;;;;1999.90;999.90;;;;;;;23.78;91.78;98172.29;3952850;74;43718;-23
2021/06/16 20:29:15;;;;;;;1999.90;999.90;;;;;;;23.68;92.49;98171.07;3955208;74;43701;-23
2021/06/16 20:34:22;;;;;;;1999.90;999.90;;;;;;;23.33;97.03;98166.70;3933701;73;44669;-23
2021/06/16 20:39:29;;;;;;;1999.90;999.90;;;;;;;23.11;98.16;98164.39;3947477;73;43259;-23
2021/06/16 20:44:35;;;;;;;1999.90;999.90;;;;;;;23.03;98.49;98163.70;3939084;73;44171;-23
2021/06/16 20:49:43;;;;;;;1999.90;999.90;;;;;;;23.32;95.86;98167.78;3946129;74;43450;-23
2021/06/16 20:54:50;;;;;;;1999.90;999.90;;;;;;;23.34;95.30;98163.40;3939091;74;43615;-23
2021/06/16 20:59:56;;;;;;;1999.90;999.90;;;;;;;23.33;95.75;98171.35;3933842;73;44070;-23
2021/06/16 21:05:02;;;;;;;1999.90;999.90;;;;;;;23.33;95.00;98169.45;3929118;73;43673;-23
2021/06/16 21:10:10;;;;;;;1999.90;999.90;;;;;;;23.32;93.64;98179.30;3935786;73;44517;-23
2021/06/16 21:15:18;;;;;;;1999.90;999.90;;;;;;;23.28;94.07;98180.35;3852689;76;44464;-23
2021/06/16 21:20:25;;;;;;;1999.90;999.90;;;;;;;23.29;93.65;98182.02;3831139;76;43382;-23
2021/06/16 21:25:32;;;;;;;1999.90;999.90;;;;;;;23.16;95.05;98178.19;3829281;76;43447;-23
2021/06/16 21:30:40;;;;;;;1999.90;999.90;;;;;;;22.99;96.34;98185.05;3848774;75;43999;-23
2021/06/16 21:35:47;;;;;;;1999.90;999.90;;;;;;;22.78;98.40;98185.52;3843850;76;43410;-23
2021/06/16 21:40:53;;;;;;;1999.90;999.90;;;;;;;22.63;99.96;98186.08;3829171;76;44136;-24
2021/06/16 21:46:00;;;;;;;1999.90;999.90;;;;;;;22.55;100.00;98186.48;3842251;75;43682;-23
2021/06/16 21:51:08;;;;;;;1999.90;999.90;;;;;;;22.46;100.00;98187.95;3840685;76;43717;-24
2021/06/16 21:56:16;;;;;;;1999.90;999.90;;;;;;;22.35;100.00;98191.00;3918502;73;26743;-24
2021/06/16 22:01:23;;;;;;;1999.90;999.90;;;;;;;22.22;100.00;98190.75;3907934;74;43111;-24
2021/06/16 22:06:29;;;;;;;1999.90;999.90;;;;;;;22.22;100.00;98185.78;3939978;74;42998;-24
2021/06/16 22:11:36;;;;;;;1999.90;999.90;;;;;;;22.14;100.00;98192.48;3967371;73;44140;-24
2021/06/16 22:16:43;;;;;;;1999.90;999.90;;;;;;;22.14;100.00;98194.70;3945251;73;43410;-24
2021/06/16 22:21:50;;;;;;;1999.90;999.90;;;;;;;22.03;100.00;98195.56;3951109;73;43349;-24
2021/06/16 22:26:56;;;;;;;1999.90;999.90;;;;;;;21.93;100.00;98198.91;3951569;73;43409;-24
2021/06/16 22:32:02;;;;;;;1999.90;999.90;;;;;;;21.86;100.00;98192.73;3950727;74;43461;-24
2021/06/16 22:37:08;;;;;;;1999.90;999.90;;;;;;;21.90;100.00;98185.67;3950334;74;43685;-24
2021/06/16 22:42:14;;;;;;;1999.90;999.90;;;;;;;21.89;100.00;98191.41;3947110;74;43082;-24
2021/06/16 22:47:20;;;;;;;1999.90;999.90;;;;;;;21.88;100.00;98189.19;3945822;74;43664;-24
2021/06/16 22:52:26;;;;;;;1999.90;999.90;;;;;;;21.85;100.00;98191.88;3923381;73;43564;-24
2021/06/16 22:57:32;;;;;;;1999.90;999.90;;;;;;;21.85;100.00;98195.99;3900223;74;43650;-24
2021/06/16 23:02:39;;;;;;;1999.90;999.90;;;;;;;21.88;100.00;98193.30;3895483;75;44078;-24
2021/06/16 23:07:45;;;;;;;1999.90;999.90;;;;;;;21.87;100.00;98195.77;3893024;75;43326;-24
2021/06/16 23:12:51;;;;;;;1999.90;999.90;;;;;;;21.84;100.00;98194.33;3894746;74;43600;-24
2021/06/16 23:17:57;;;;;;;1999.90;999.90;;;;;;;21.81;100.00;98196.72;3896768;75;44172;-24
2021/06/16 23:23:05;;;;;;;1999.90;999.90;;;;;;;21.69;100.00;98204.42;3896280;74;44029;-24
2021/06/16 23:28:11;;;;;;;1999.90;999.90;;;;;;;21.66;100.00;98206.81;3900350;74;43195;-24
2021/06/16 23:33:18;;;;;;;1999.90;999.90;;;;;;;21.68;100.00;98204.67;3897998;75;43721;-24
2021/06/16 23:38:25;;;;;;;1999.90;999.90;;;;;;;21.67;100.00;98201.63;3903075;75;44008;-24
2021/06/16 23:43:31;;;;;;;1999.90;999.90;;;;;;;21.64;99.74;98205.66;3902561;74;43255;-24
2021/06/16 23:48:37;;;;;;;1999.90;999.90;;;;;;;21.63;99.57;98208.65;3909224;75;42733;-24